Brighton, United Kingdom
Current Conditions -  °F | °C
As of 10:50 AM on Thursday 27 Nov 2014 (Local Time) from EGKA Reporting Station
Scattered Clouds Scattered Clouds  
Wind Chill:   Ceiling: Unl
Heat Index:   Visibility: 4mi
Dew Point:   Wind: 1mph
Humidity: 100%   Direction: 10°N
Pressure: 29.62"   Gusts: NA
Location:  50.83°N, 0.17°W
Report Text: EGKA 271050Z 01001KT 7000 FEW007 SCT040 09/09 Q1003
Loading
Personal Weather Stations






























Interactive Weather Map New forecast layout! Learn more

10-Day Weather Forecast

Advertisements
Track Severe Weather on mobile